Time;durP1;ratioP1;P1;durP2;ratioP2;P2;SDS_P1;SDS_P2;PMS_P1;PMS_P2;Temp;Humidity;BMP_temperature;BMP_pressure;BME280_temperature;BME280_humidity;BME280_pressure;Samples;Min_cycle;Max_cycle;Signal;HPM_P1;HPM_P2
2023/07/08 00:00:47;;;;;;;7.10;4.30;;;17.50;99.90;;;;;;5005204;28;20041;-76
2023/07/08 00:03:17;;;;;;;10.50;4.65;;;17.50;99.90;;;;;;5025108;28;20039;-75
2023/07/08 00:05:43;;;;;;;10.27;4.68;;;17.40;99.90;;;;;;4994373;28;20041;-77
2023/07/08 00:08:19;;;;;;;8.32;4.40;;;17.40;99.90;;;;;;5024684;28;20515;-77
2023/07/08 00:10:44;;;;;;;10.15;4.90;;;17.40;99.90;;;;;;5009297;28;20567;-76
2023/07/08 00:13:10;;;;;;;8.25;4.75;;;17.40;99.90;;;;;;5005881;28;20045;-75
2023/07/08 00:15:37;;;;;;;7.22;4.38;;;17.30;99.90;;;;;;5010986;28;20038;-76
2023/07/08 00:18:16;;;;;;;6.03;4.18;;;17.30;99.90;;;;;;5003792;28;20046;-75
2023/07/08 00:20:48;;;;;;;12.52;4.70;;;17.30;99.90;;;;;;5026638;28;20132;-75
2023/07/08 00:23:14;;;;;;;9.73;4.80;;;17.30;99.90;;;;;;5021744;28;20034;-77
2023/07/08 00:25:41;;;;;;;7.10;4.97;;;17.30;99.90;;;;;;5010904;28;20144;-76
2023/07/08 00:28:21;;;;;;;10.60;5.05;;;17.30;99.90;;;;;;5009170;28;20416;-75
2023/07/08 00:30:47;;;;;;;11.07;4.65;;;17.30;99.90;;;;;;5038313;28;20091;-76
2023/07/08 00:33:13;;;;;;;9.63;4.78;;;17.30;99.90;;;;;;5010528;28;20057;-75
2023/07/08 00:35:43;;;;;;;7.60;4.30;;;17.20;99.90;;;;;;5028590;28;20438;-76
2023/07/08 00:38:15;;;;;;;9.40;4.57;;;17.20;99.90;;;;;;5019021;28;20048;-75
2023/07/08 00:41:02;;;;;;;9.25;4.75;;;17.20;99.90;;;;;;5026443;28;20049;-76
2023/07/08 00:43:49;;;;;;;7.57;4.78;;;17.20;99.90;;;;;;5024058;28;20499;-75
2023/07/08 00:46:29;;;;;;;8.18;4.60;;;17.10;99.90;;;;;;5026647;28;20056;-76
2023/07/08 00:49:03;;;;;;;9.63;4.70;;;17.10;99.90;;;;;;5047157;28;20154;-76
2023/07/08 00:51:29;;;;;;;6.55;4.25;;;17.10;99.90;;;;;;5019040;28;20053;-76
2023/07/08 00:53:54;;;;;;;6.63;4.78;;;17.00;99.90;;;;;;5021950;28;20052;-76
2023/07/08 00:56:34;;;;;;;8.68;4.60;;;17.00;99.90;;;;;;5023997;28;20056;-76
2023/07/08 00:59:07;;;;;;;10.75;5.18;;;17.00;99.90;;;;;;5019920;28;20060;-76
2023/07/08 01:01:34;;;;;;;;;;;17.00;99.90;;;;;;5008413;28;20103;-76
2023/07/08 01:04:23;;;;;;;7.40;4.45;;;16.90;99.90;;;;;;5039261;28;19927;-76
2023/07/08 01:06:57;;;;;;;7.13;4.22;;;16.90;99.90;;;;;;4997469;28;20293;-75
2023/07/08 01:09:28;;;;;;;7.13;4.72;;;16.90;99.90;;;;;;5024968;28;20045;-76
2023/07/08 01:11:58;;;;;;;9.10;5.20;;;16.90;99.90;;;;;;5045939;28;20102;-75
2023/07/08 01:14:26;;;;;;;7.40;4.78;;;16.90;99.90;;;;;;5023448;28;20124;-76
2023/07/08 01:16:52;;;;;;;8.70;4.43;;;16.80;99.90;;;;;;5044203;28;20125;-77
2023/07/08 01:19:21;;;;;;;10.68;5.15;;;16.80;99.90;;;;;;5005679;28;20136;-75
2023/07/08 01:22:07;;;;;;;8.48;4.85;;;16.80;99.90;;;;;;5036408;28;20103;-76
2023/07/08 01:24:40;;;;;;;11.18;5.32;;;16.70;99.90;;;;;;5014321;28;20103;-75
2023/07/08 01:27:09;;;;;;;8.25;5.00;;;16.70;99.90;;;;;;5023840;28;20551;-75
2023/07/08 01:29:35;;;;;;;8.13;4.88;;;16.70;99.90;;;;;;5019950;28;20091;-76
2023/07/08 01:32:05;;;;;;;8.25;5.05;;;16.70;99.90;;;;;;5018556;28;20041;-75
2023/07/08 01:34:32;;;;;;;9.93;4.75;;;16.70;99.90;;;;;;5014429;28;20045;-75
2023/07/08 01:37:00;;;;;;;8.48;4.72;;;16.70;99.90;;;;;;5024356;28;20037;-76
2023/07/08 01:39:29;;;;;;;9.32;4.72;;;16.70;99.90;;;;;;5025041;28;20059;-75
2023/07/08 01:41:56;;;;;;;8.60;4.63;;;16.70;99.90;;;;;;5044538;28;20464;-75
2023/07/08 01:44:29;;;;;;;7.60;4.78;;;16.60;99.90;;;;;;5047375;28;20052;-76
2023/07/08 01:47:04;;;;;;;8.73;5.00;;;16.60;99.90;;;;;;5025807;28;20037;-76
2023/07/08 01:49:31;;;;;;;8.38;4.95;;;16.70;99.90;;;;;;5019986;28;20056;-76
2023/07/08 01:51:58;;;;;;;8.25;4.70;;;16.60;99.90;;;;;;5023698;28;20040;-76
2023/07/08 01:54:24;;;;;;;8.00;4.80;;;16.60;99.90;;;;;;5016382;28;20056;-76
2023/07/08 01:56:56;;;;;;;9.38;5.20;;;16.60;99.90;;;;;;5006727;28;20042;-75
2023/07/08 01:59:21;;;;;;;10.30;4.63;;;16.60;99.90;;;;;;5005297;28;20049;-75
2023/07/08 02:01:49;;;;;;;10.52;5.50;;;16.50;99.90;;;;;;5003917;28;20049;-75
2023/07/08 02:04:15;;;;;;;9.77;5.05;;;16.50;99.90;;;;;;5026623;28;20052;-75
2023/07/08 02:06:42;;;;;;;13.27;5.28;;;16.50;99.90;;;;;;5004734;28;20044;-75
2023/07/08 02:09:07;;;;;;;8.93;4.93;;;16.50;99.90;;;;;;5020985;28;20118;-74
2023/07/08 02:11:33;;;;;;;8.52;4.82;;;16.50;99.90;;;;;;5006338;28;20493;-75
2023/07/08 02:14:00;;;;;;;7.40;5.28;;;16.40;99.90;;;;;;5025129;28;20091;-75
2023/07/08 02:16:26;;;;;;;9.63;4.40;;;16.40;99.90;;;;;;5010354;28;20046;-75
2023/07/08 02:18:51;;;;;;;9.85;5.20;;;16.30;99.90;;;;;;5023397;28;20042;-76
2023/07/08 02:21:17;;;;;;;9.95;5.32;;;16.30;99.90;;;;;;5032831;28;20053;-75
2023/07/08 02:23:49;;;;;;;7.85;5.20;;;16.30;99.90;;;;;;5012199;28;20039;-76
2023/07/08 02:26:14;;;;;;;9.80;5.00;;;16.30;99.90;;;;;;5011475;28;20491;-76
2023/07/08 02:28:40;;;;;;;9.95;5.57;;;16.30;99.90;;;;;;5033255;28;20061;-76
2023/07/08 02:31:06;;;;;;;9.15;4.85;;;16.20;99.90;;;;;;5011814;28;20045;-75
2023/07/08 02:33:32;;;;;;;8.55;5.72;;;16.20;99.90;;;;;;5030411;28;20053;-75
2023/07/08 02:35:59;;;;;;;8.32;5.55;;;16.20;99.90;;;;;;5032671;28;20041;-75
2023/07/08 02:38:25;;;;;;;10.00;5.78;;;16.10;99.90;;;;;;5013512;28;20037;-75
2023/07/08 02:40:50;;;;;;;8.32;6.25;;;16.10;99.90;;;;;;5011213;28;20378;-75
2023/07/08 02:43:16;;;;;;;8.77;4.85;;;16.10;99.90;;;;;;5011764;28;20064;-75
2023/07/08 02:45:42;;;;;;;10.10;5.60;;;16.10;99.90;;;;;;5029682;28;20068;-75
2023/07/08 02:48:08;;;;;;;9.18;5.93;;;16.00;99.90;;;;;;5008548;28;20120;-75
2023/07/08 02:50:33;;;;;;;9.43;5.78;;;16.00;99.90;;;;;;5007945;28;20057;-76
2023/07/08 02:52:59;;;;;;;9.07;5.20;;;16.00;99.90;;;;;;5022302;28;20045;-76
2023/07/08 02:55:24;;;;;;;9.13;5.30;;;16.00;99.90;;;;;;5029158;28;20053;-76
2023/07/08 02:57:50;;;;;;;8.73;6.00;;;16.00;99.90;;;;;;5027919;28;20110;-76
2023/07/08 03:00:16;;;;;;;11.43;5.57;;;15.90;99.90;;;;;;5014022;28;20378;-76
2023/07/08 03:02:41;;;;;;;11.20;5.35;;;15.90;99.90;;;;;;5026711;28;20051;-75
2023/07/08 03:05:07;;;;;;;10.45;6.40;;;15.90;99.90;;;;;;5029215;28;20128;-75
2023/07/08 03:07:33;;;;;;;10.13;6.10;;;15.90;99.90;;;;;;5032153;28;20083;-77
2023/07/08 03:09:59;;;;;;;7.65;5.72;;;15.80;99.90;;;;;;5027240;28;20038;-78
2023/07/08 03:12:24;;;;;;;10.20;5.53;;;15.80;99.90;;;;;;5024824;28;20045;-76
2023/07/08 03:14:50;;;;;;;7.65;5.32;;;15.80;99.90;;;;;;5011448;28;20091;-77
2023/07/08 03:17:17;;;;;;;8.93;5.70;;;15.80;99.90;;;;;;5012915;28;20041;-77
2023/07/08 03:19:43;;;;;;;9.73;5.70;;;15.80;99.90;;;;;;5013307;28;20042;-77
2023/07/08 03:22:09;;;;;;;9.77;6.20;;;15.70;99.90;;;;;;5015511;28;20048;-77
2023/07/08 03:24:35;;;;;;;10.07;6.07;;;15.80;99.90;;;;;;5027179;28;20420;-76
2023/07/08 03:27:04;;;;;;;8.90;6.00;;;15.70;99.90;;;;;;5007766;28;20045;-76
2023/07/08 03:29:30;;;;;;;10.20;6.45;;;15.70;99.90;;;;;;5032469;28;20160;-76
2023/07/08 03:31:56;;;;;;;9.60;6.45;;;15.70;99.90;;;;;;5027096;28;20052;-77
2023/07/08 03:34:22;;;;;;;10.27;5.95;;;15.70;99.90;;;;;;5028187;28;20049;-76
2023/07/08 03:36:53;;;;;;;10.05;6.13;;;15.70;99.90;;;;;;5028945;28;20055;-77
2023/07/08 03:39:22;;;;;;;11.88;6.38;;;15.70;99.90;;;;;;5045330;28;20051;-76
2023/07/08 03:41:49;;;;;;;10.07;6.10;;;15.70;99.90;;;;;;5024841;28;20072;-77
2023/07/08 03:44:17;;;;;;;10.20;6.22;;;15.70;99.90;;;;;;5048225;28;20033;-73
2023/07/08 03:46:49;;;;;;;10.88;6.38;;;15.70;99.90;;;;;;5028689;28;20114;-76
2023/07/08 03:49:16;;;;;;;10.02;6.03;;;15.70;99.90;;;;;;5046297;28;20041;-75
2023/07/08 03:51:42;;;;;;;11.05;7.00;;;15.70;99.90;;;;;;5046232;28;20061;-76
2023/07/08 03:54:12;;;;;;;11.25;6.10;;;15.70;99.90;;;;;;5025841;28;20045;-75
2023/07/08 03:56:38;;;;;;;9.85;6.60;;;15.70;99.90;;;;;;5006803;28;20076;-75
2023/07/08 03:59:04;;;;;;;9.40;6.18;;;15.80;99.90;;;;;;5045854;28;20146;-75
2023/07/08 04:01:30;;;;;;;9.65;6.32;;;15.80;99.90;;;;;;4993908;28;20489;-75
2023/07/08 04:03:58;;;;;;;10.90;5.85;;;15.80;99.90;;;;;;5031318;28;20033;-76
2023/07/08 04:06:24;;;;;;;14.10;7.10;;;15.90;99.90;;;;;;5031059;28;21163;-75
2023/07/08 04:08:51;;;;;;;10.45;5.93;;;15.90;99.90;;;;;;5048251;28;20041;-76
2023/07/08 04:11:19;;;;;;;8.77;6.00;;;16.00;99.90;;;;;;5042284;28;20041;-76
2023/07/08 04:13:45;;;;;;;9.20;6.18;;;16.10;99.90;;;;;;5031733;28;20052;-76
2023/07/08 04:16:21;;;;;;;10.07;5.85;;;16.30;99.90;;;;;;5026037;28;20041;-77
2023/07/08 04:18:47;;;;;;;10.30;6.03;;;16.50;99.90;;;;;;5028238;28;20033;-77
2023/07/08 04:21:13;;;;;;;11.23;6.20;;;16.80;99.90;;;;;;5045432;28;20040;-76
2023/07/08 04:23:38;;;;;;;10.80;6.68;;;17.10;99.90;;;;;;5041621;28;20582;-76
2023/07/08 04:26:04;;;;;;;8.13;5.07;;;17.40;99.90;;;;;;5028008;28;20029;-75
2023/07/08 04:28:30;;;;;;;9.60;5.82;;;17.60;99.90;;;;;;5046252;28;20069;-77
2023/07/08 04:30:55;;;;;;;9.02;5.70;;;17.70;99.90;;;;;;5043985;28;20075;-76
2023/07/08 04:33:21;;;;;;;6.63;5.72;;;17.50;99.90;;;;;;5025209;28;20473;-77
2023/07/08 04:35:47;;;;;;;11.98;5.80;;;17.20;99.90;;;;;;5049380;28;20563;-77
2023/07/08 04:38:24;;;;;;;11.32;6.55;;;17.10;99.90;;;;;;5010579;28;20037;-77
2023/07/08 04:40:52;;;;;;;9.98;5.93;;;16.90;99.90;;;;;;5024081;28;20048;-77
2023/07/08 04:43:19;;;;;;;14.45;6.07;;;16.90;99.90;;;;;;5045140;28;20096;-77
2023/07/08 04:45:50;;;;;;;9.90;5.68;;;16.80;99.90;;;;;;5024356;28;20029;-76
2023/07/08 04:48:20;;;;;;;9.90;6.10;;;16.80;99.90;;;;;;5029481;28;20061;-77
2023/07/08 04:50:48;;;;;;;9.30;5.63;;;16.80;99.90;;;;;;5027867;28;20403;-77
2023/07/08 04:53:14;;;;;;;8.18;5.28;;;16.80;99.90;;;;;;5014101;28;20075;-77
2023/07/08 04:55:44;;;;;;;9.32;5.40;;;16.80;99.90;;;;;;5010451;28;20057;-77
2023/07/08 04:58:10;;;;;;;7.28;5.38;;;16.80;99.90;;;;;;5046049;28;20053;-77
2023/07/08 05:00:36;;;;;;;10.77;6.05;;;16.90;99.90;;;;;;5030155;28;20098;-77
2023/07/08 05:03:01;;;;;;;8.75;5.30;;;17.00;99.90;;;;;;5045126;28;20082;-76
2023/07/08 05:05:27;;;;;;;7.88;5.43;;;17.10;99.90;;;;;;5044637;28;20520;-78
2023/07/08 05:07:53;;;;;;;8.82;5.25;;;17.20;99.90;;;;;;5044728;28;20072;-77
2023/07/08 05:10:19;;;;;;;7.40;4.75;;;17.20;99.90;;;;;;5045217;28;20069;-77
2023/07/08 05:12:45;;;;;;;9.93;5.28;;;17.40;99.90;;;;;;5027808;28;20040;-77
2023/07/08 05:15:13;;;;;;;7.60;5.03;;;17.50;99.90;;;;;;5045253;28;20041;-76
2023/07/08 05:17:39;;;;;;;8.00;5.40;;;17.50;99.90;;;;;;5045778;28;20131;-77
2023/07/08 05:20:07;;;;;;;8.88;5.00;;;17.70;99.90;;;;;;5012078;28;20041;-77
2023/07/08 05:22:33;;;;;;;8.07;5.28;;;17.70;99.90;;;;;;5045825;28;20029;-78
2023/07/08 05:24:59;;;;;;;11.00;5.60;;;17.90;99.90;;;;;;5010202;28;20063;-77
2023/07/08 05:27:25;;;;;;;7.88;4.88;;;18.00;99.90;;;;;;5023539;28;20476;-77
2023/07/08 05:29:51;;;;;;;10.30;5.38;;;18.10;99.90;;;;;;5046169;28;20037;-77
2023/07/08 05:32:17;;;;;;;9.18;5.05;;;18.20;99.90;;;;;;5046111;28;20039;-77
2023/07/08 05:34:44;;;;;;;8.65;5.15;;;18.30;99.90;;;;;;5046408;28;20068;-78
2023/07/08 05:37:11;;;;;;;8.48;5.00;;;18.30;99.90;;;;;;5027914;28;20051;-78
2023/07/08 05:39:37;;;;;;;11.32;5.22;;;18.50;99.90;;;;;;5044139;28;20127;-76
2023/07/08 05:42:03;;;;;;;8.27;5.30;;;18.60;99.90;;;;;;5041774;28;20051;-75
2023/07/08 05:44:29;;;;;;;8.20;5.20;;;18.70;99.90;;;;;;5024836;28;20463;-77
2023/07/08 05:46:54;;;;;;;8.00;4.72;;;18.70;99.90;;;;;;5028970;28;20049;-77
2023/07/08 05:49:20;;;;;;;7.50;4.95;;;18.90;99.90;;;;;;5012005;28;20041;-77
2023/07/08 05:51:46;;;;;;;10.43;4.85;;;19.00;99.90;;;;;;5026276;28;20037;-77
2023/07/08 05:54:11;;;;;;;8.05;4.80;;;19.10;99.90;;;;;;5041198;28;20038;-77
2023/07/08 05:56:37;;;;;;;8.52;4.45;;;19.20;99.90;;;;;;5023985;28;20041;-77
2023/07/08 05:59:04;;;;;;;11.00;4.68;;;19.30;99.90;;;;;;5024393;28;20050;-76
2023/07/08 06:01:30;;;;;;;8.30;4.97;;;19.40;99.90;;;;;;5020030;28;20037;-77
2023/07/08 06:03:59;;;;;;;7.28;4.70;;;19.50;99.90;;;;;;5047049;28;20170;-76
2023/07/08 06:06:26;;;;;;;11.57;4.68;;;19.70;99.90;;;;;;5044834;28;20037;-77
2023/07/08 06:08:52;;;;;;;7.97;4.07;;;19.80;99.90;;;;;;5027290;28;20508;-77
2023/07/08 06:11:19;;;;;;;8.02;4.55;;;19.90;99.90;;;;;;5041529;28;20045;-76
2023/07/08 06:13:45;;;;;;;9.52;4.60;;;20.00;99.90;;;;;;5030537;28;20102;-77
2023/07/08 06:16:10;;;;;;;6.18;4.43;;;20.10;99.90;;;;;;5031454;28;20040;-77
2023/07/08 06:18:36;;;;;;;7.88;3.92;;;20.10;99.90;;;;;;5044421;28;20041;-78
2023/07/08 06:21:03;;;;;;;9.63;4.07;;;20.30;99.90;;;;;;5038770;28;20559;-76
2023/07/08 06:23:30;;;;;;;6.30;4.22;;;20.40;99.90;;;;;;5026583;28;20076;-75
2023/07/08 06:25:57;;;;;;;7.75;4.07;;;20.60;99.90;;;;;;5037495;28;20045;-75
2023/07/08 06:28:23;;;;;;;8.38;3.95;;;20.60;99.90;;;;;;5040020;28;20135;-76
2023/07/08 06:30:49;;;;;;;7.15;3.72;;;20.80;99.90;;;;;;5012210;28;20120;-77
2023/07/08 06:33:15;;;;;;;5.25;3.67;;;20.90;99.90;;;;;;5012710;28;20060;-77
2023/07/08 06:35:44;;;;;;;14.68;4.25;;;21.00;99.90;;;;;;5042392;28;20044;-77
2023/07/08 06:38:10;;;;;;;8.15;3.35;;;21.10;99.90;;;;;;5024285;28;20045;-77
2023/07/08 06:40:36;;;;;;;6.10;3.58;;;21.30;99.90;;;;;;5024678;28;20099;-77
2023/07/08 06:43:03;;;;;;;6.22;3.35;;;21.40;99.90;;;;;;5026379;28;20458;-74
2023/07/08 06:45:29;;;;;;;9.00;3.50;;;21.50;99.90;;;;;;5044118;28;20043;-77
2023/07/08 06:47:54;;;;;;;7.50;3.53;;;21.60;99.90;;;;;;5010278;28;20404;-78
2023/07/08 06:50:20;;;;;;;6.80;3.53;;;21.70;99.90;;;;;;5024894;28;20041;-77
2023/07/08 06:52:46;;;;;;;4.07;2.90;;;21.80;99.90;;;;;;5047167;28;20047;-75
2023/07/08 06:55:12;;;;;;;8.38;3.85;;;22.00;99.90;;;;;;5024765;28;20077;-76
2023/07/08 06:57:38;;;;;;;5.78;3.70;;;22.00;99.90;;;;;;5042484;28;20060;-77
2023/07/08 07:00:07;;;;;;;9.68;3.60;;;22.10;99.90;;;;;;5024857;28;20065;-77
2023/07/08 07:02:33;;;;;;;6.28;3.22;;;22.20;99.90;;;;;;5043842;28;20114;-77
2023/07/08 07:04:59;;;;;;;5.97;3.00;;;22.30;99.90;;;;;;5030319;28;20045;-77
2023/07/08 07:07:24;;;;;;;9.07;4.00;;;22.40;99.90;;;;;;5020091;28;20052;-76
2023/07/08 07:09:50;;;;;;;4.47;3.08;;;22.60;99.90;;;;;;5049498;28;20049;-76
2023/07/08 07:12:16;;;;;;;5.00;3.00;;;22.60;99.90;;;;;;5019934;28;20057;-77
2023/07/08 07:14:41;;;;;;;5.97;3.58;;;22.80;99.90;;;;;;5003084;28;20053;-76
2023/07/08 07:17:07;;;;;;;6.65;3.40;;;22.90;99.90;;;;;;5044977;28;20061;-76
2023/07/08 07:19:33;;;;;;;5.35;2.97;;;22.90;99.90;;;;;;5028853;28;20102;-77
2023/07/08 07:21:58;;;;;;;7.57;3.22;;;23.00;99.90;;;;;;5023259;28;20503;-76
2023/07/08 07:24:24;;;;;;;4.85;2.85;;;23.10;99.90;;;;;;5045468;28;20044;-76
2023/07/08 07:26:50;;;;;;;5.32;3.10;;;23.20;99.90;;;;;;5042657;28;21421;-76
2023/07/08 07:29:17;;;;;;;5.97;3.35;;;23.30;99.90;;;;;;5038494;28;20598;-78
2023/07/08 07:31:43;;;;;;;4.60;2.88;;;23.40;99.90;;;;;;5041086;28;20520;-77
2023/07/08 07:34:09;;;;;;;7.30;3.22;;;23.50;99.90;;;;;;5046710;28;20048;-76
2023/07/08 07:36:35;;;;;;;5.40;2.83;;;23.60;99.90;;;;;;5043377;28;20052;-77
2023/07/08 07:39:00;;;;;;;5.90;3.13;;;23.60;99.90;;;;;;5030475;28;20037;-77
2023/07/08 07:41:26;;;;;;;6.03;3.10;;;23.70;99.90;;;;;;5041462;28;20052;-77
2023/07/08 07:43:52;;;;;;;7.28;3.40;;;23.70;99.90;;;;;;5027216;28;20172;-78
2023/07/08 07:46:18;;;;;;;5.38;3.30;;;23.90;99.90;;;;;;5047388;28;20506;-77
2023/07/08 07:48:44;;;;;;;8.15;3.40;;;24.10;99.90;;;;;;5029488;28;20045;-78
2023/07/08 07:51:10;;;;;;;9.88;3.45;;;24.20;99.90;;;;;;5044333;28;20381;-77
2023/07/08 07:53:39;;;;;;;4.93;2.95;;;24.30;99.90;;;;;;5026859;28;20049;-77
2023/07/08 07:56:05;;;;;;;7.15;3.38;;;24.30;99.90;;;;;;5008174;28;20045;-77
2023/07/08 07:58:32;;;;;;;6.38;3.10;;;24.40;99.90;;;;;;5028143;28;20044;-76
2023/07/08 08:00:57;;;;;;;6.70;3.03;;;24.50;99.90;;;;;;5030025;28;20048;-77
2023/07/08 08:03:23;;;;;;;7.18;3.28;;;24.50;99.90;;;;;;5028609;28;20045;-77
2023/07/08 08:05:49;;;;;;;5.30;3.00;;;24.60;99.90;;;;;;5030465;28;20133;-78
2023/07/08 08:08:15;;;;;;;5.97;3.33;;;24.70;99.90;;;;;;5010733;28;20044;-77
2023/07/08 08:10:42;;;;;;;5.45;3.00;;;24.80;99.90;;;;;;5033781;28;20038;-77
2023/07/08 08:13:08;;;;;;;6.38;3.35;;;24.90;99.90;;;;;;5038199;28;20049;-77
2023/07/08 08:15:34;;;;;;;7.70;3.25;;;24.90;99.90;;;;;;5040297;28;20068;-77
2023/07/08 08:18:00;;;;;;;4.70;3.33;;;24.90;99.90;;;;;;5031374;28;20416;-77
2023/07/08 08:20:28;;;;;;;6.47;2.88;;;25.00;99.90;;;;;;5039029;28;20378;-77
2023/07/08 08:22:54;;;;;;;5.65;3.10;;;25.10;99.90;;;;;;5012364;28;20045;-78
2023/07/08 08:25:22;;;;;;;9.02;3.42;;;25.20;99.90;;;;;;5024793;28;20052;-77
2023/07/08 08:27:47;;;;;;;5.18;2.92;;;25.20;99.90;;;;;;5043273;28;20061;-78
2023/07/08 08:30:13;;;;;;;5.68;3.28;;;25.30;99.90;;;;;;5033837;28;20061;-79
2023/07/08 08:32:39;;;;;;;6.75;2.90;;;25.40;99.90;;;;;;5020118;28;20052;-78
2023/07/08 08:35:05;;;;;;;5.03;3.42;;;25.50;99.90;;;;;;5045640;28;20049;-78
2023/07/08 08:37:31;;;;;;;4.18;2.97;;;25.70;99.90;;;;;;5041811;28;20049;-78
2023/07/08 08:39:56;;;;;;;8.35;3.83;;;25.70;99.90;;;;;;5024591;28;20033;-79
2023/07/08 08:42:39;;;;;;;5.78;3.25;;;25.80;99.90;;;;;;5027829;28;20516;-77
2023/07/08 08:45:10;;;;;;;5.72;3.00;;;25.90;99.90;;;;;;5026456;28;20072;-78
2023/07/08 08:47:43;;;;;;;4.57;3.00;;;26.00;99.90;;;;;;5025323;28;20091;-78
2023/07/08 08:50:27;;;;;;;;;;;26.00;99.90;;;;;;5005693;28;20576;-78
2023/07/08 08:52:55;;;;;;;5.97;2.75;;;26.10;99.90;;;;;;5033619;28;21120;-77
2023/07/08 08:55:25;;;;;;;7.18;3.20;;;26.20;99.90;;;;;;5020043;28;20079;-78
2023/07/08 08:58:16;;;;;;;7.10;3.45;;;26.30;99.90;;;;;;5042606;28;20127;-79
2023/07/08 09:01:04;;;;;;;6.50;2.92;;;26.50;99.90;;;;;;5042712;28;20044;-78
2023/07/08 09:03:51;;;;;;;6.32;2.97;;;26.50;99.90;;;;;;5042496;28;20041;-77
2023/07/08 09:06:25;;;;;;;5.72;3.00;;;26.60;99.90;;;;;;5027670;28;20527;-78
2023/07/08 09:08:52;;;;;;;6.10;2.95;;;26.70;99.90;;;;;;5041797;28;20029;-78
2023/07/08 09:11:36;;;;;;;8.00;3.20;;;26.80;99.90;;;;;;5026262;28;20049;-77
2023/07/08 09:14:02;;;;;;;4.90;2.97;;;26.90;99.90;;;;;;5009811;28;20350;-77
2023/07/08 09:16:42;;;;;;;5.32;3.25;;;27.10;99.90;;;;;;5048153;28;20060;-77
2023/07/08 09:19:31;;;;;;;7.47;3.40;;;27.20;99.90;;;;;;5046458;28;20068;-77
2023/07/08 09:22:10;;;;;;;4.28;2.78;;;27.40;99.90;;;;;;5041712;28;20492;-77
2023/07/08 09:24:56;;;;;;;10.13;3.72;;;27.40;99.90;;;;;;5029018;28;20052;-78
2023/07/08 09:27:22;;;;;;;7.53;3.08;;;27.40;99.90;;;;;;5026485;28;20044;-78
2023/07/08 09:29:49;;;;;;;5.15;3.08;;;27.30;99.90;;;;;;5027112;28;20053;-78
2023/07/08 09:32:16;;;;;;;4.53;2.85;;;27.20;99.90;;;;;;5044854;28;20075;-77
2023/07/08 09:35:04;;;;;;;4.65;3.05;;;27.20;99.90;;;;;;5029128;28;20111;-78
2023/07/08 09:37:35;;;;;;;4.85;2.92;;;27.40;99.90;;;;;;5008366;28;20146;-78
2023/07/08 09:40:21;;;;;;;5.38;2.97;;;27.50;99.90;;;;;;5024745;28;20068;-79
2023/07/08 09:42:51;;;;;;;5.00;2.80;;;27.60;99.90;;;;;;5023181;28;20041;-79
2023/07/08 09:45:23;;;;;;;6.03;2.90;;;27.80;99.90;;;;;;5026713;28;20045;-80
2023/07/08 09:47:54;;;;;;;6.53;3.03;;;27.70;99.90;;;;;;5024422;28;20570;-76
2023/07/08 09:50:28;;;;;;;5.72;3.00;;;27.80;99.90;;;;;;5024996;28;20129;-76
2023/07/08 09:53:01;;;;;;;7.13;3.30;;;27.90;99.90;;;;;;5024341;28;20052;-78
2023/07/08 09:55:28;;;;;;;5.85;3.08;;;28.10;99.90;;;;;;5018550;28;20418;-78
2023/07/08 09:57:57;;;;;;;6.63;2.90;;;28.10;99.90;;;;;;5023698;28;20076;-76
2023/07/08 10:00:33;;;;;;;5.70;2.75;;;28.20;99.90;;;;;;5046499;28;20518;-77
2023/07/08 10:03:05;;;;;;;3.58;2.60;;;28.30;99.90;;;;;;5040353;28;20106;-79
2023/07/08 10:05:39;;;;;;;9.50;3.13;;;28.30;99.90;;;;;;5038448;28;20040;-78
2023/07/08 10:08:15;;;;;;;7.13;2.92;;;28.40;99.90;;;;;;5031695;28;20037;-75
2023/07/08 10:10:43;;;;;;;6.63;2.80;;;28.30;99.90;;;;;;5019319;28;20053;-76
2023/07/08 10:13:17;;;;;;;5.40;3.20;;;28.30;99.90;;;;;;5020160;28;20053;-77
2023/07/08 10:15:49;;;;;;;6.75;3.17;;;28.30;99.90;;;;;;5038902;28;20382;-77
2023/07/08 10:18:17;;;;;;;7.18;2.90;;;28.30;99.90;;;;;;5019315;28;20488;-78
2023/07/08 10:21:15;;;;;;;4.25;3.30;;;28.30;99.90;;;;;;5043306;28;20036;-76
2023/07/08 10:24:03;;;;;;;6.82;3.00;;;28.50;99.90;;;;;;5020053;28;20101;-77
2023/07/08 10:26:31;;;;;;;5.63;2.67;;;28.80;99.90;;;;;;5045192;28;20489;-76
2023/07/08 10:29:28;;;;;;;6.30;2.90;;;28.90;99.90;;;;;;5021436;28;20409;-75
2023/07/08 10:32:12;;;;;;;5.05;2.70;;;29.10;99.90;;;;;;5019024;28;20519;-76
2023/07/08 10:34:55;;;;;;;7.07;3.40;;;29.20;99.90;;;;;;5015444;28;20033;-76
2023/07/08 10:37:47;;;;;;;5.22;2.80;;;29.20;99.90;;;;;;5028536;28;20098;-76
2023/07/08 10:40:25;;;;;;;5.05;2.95;;;29.30;99.90;;;;;;5011229;28;20408;-78
2023/07/08 10:43:23;;;;;;;6.45;3.10;;;29.30;99.90;;;;;;5025488;28;20037;-76
2023/07/08 10:46:00;;;;;;;4.80;3.03;;;29.50;99.90;;;;;;5000006;28;20095;-77
2023/07/08 10:48:57;;;;;;;7.70;3.15;;;29.40;99.90;;;;;;5031537;28;20131;-77
2023/07/08 10:51:45;;;;;;;4.63;2.60;;;29.40;99.90;;;;;;5027915;28;20218;-77
2023/07/08 10:54:29;;;;;;;6.43;2.90;;;29.40;99.90;;;;;;5048939;28;20036;-76
2023/07/08 10:57:19;;;;;;;5.00;3.00;;;29.40;99.50;;;;;;5030234;28;20045;-77
2023/07/08 11:00:03;;;;;;;5.03;3.28;;;29.50;99.90;;;;;;5038840;28;20497;-77
2023/07/08 11:02:48;;;;;;;6.65;3.30;;;29.70;99.90;;;;;;5045454;28;20132;-76
2023/07/08 11:05:22;;;;;;;8.85;3.08;;;29.80;99.60;;;;;;5025316;28;20048;-77
2023/07/08 11:07:58;;;;;;;5.70;3.40;;;29.80;99.90;;;;;;5009854;28;20464;-77
2023/07/08 11:10:35;;;;;;;5.78;3.20;;;29.80;99.80;;;;;;5042558;28;20037;-78
2023/07/08 11:13:12;;;;;;;5.93;3.20;;;29.90;99.90;;;;;;5031186;28;20266;-78
2023/07/08 11:15:51;;;;;;;4.47;2.85;;;30.00;99.90;;;;;;5042568;28;20041;-77
2023/07/08 11:18:36;;;;;;;6.13;2.88;;;30.10;99.90;;;;;;5023507;28;20412;-77
2023/07/08 11:21:16;;;;;;;6.00;2.90;;;30.10;99.90;;;;;;5048983;28;20183;-77
2023/07/08 11:23:47;;;;;;;6.75;3.40;;;30.10;99.70;;;;;;5044981;28;20041;-78
2023/07/08 11:26:47;;;;;;;5.32;2.90;;;30.10;99.90;;;;;;5046455;28;20049;-77
2023/07/08 11:29:19;;;;;;;4.80;3.28;;;30.20;99.90;;;;;;5047888;28;20276;-79
2023/07/08 11:31:46;;;;;;;4.82;3.30;;;30.10;99.90;;;;;;5045480;28;20044;-76
2023/07/08 11:34:15;;;;;;;6.05;3.13;;;30.10;99.90;;;;;;5028707;28;20037;-78
2023/07/08 11:36:43;;;;;;;7.07;3.53;;;30.10;99.50;;;;;;5044812;28;20049;-78
2023/07/08 11:39:32;;;;;;;8.45;3.58;;;30.10;99.50;;;;;;5046641;28;20067;-77
2023/07/08 11:42:21;;;;;;;6.25;3.38;;;30.10;99.50;;;;;;5025849;28;20110;-77
2023/07/08 11:44:58;;;;;;;6.20;3.40;;;30.20;99.90;;;;;;5045208;28;20451;-75
2023/07/08 11:47:26;;;;;;;4.65;3.20;;;30.30;99.90;;;;;;5046984;28;20055;-77
2023/07/08 11:49:54;;;;;;;5.88;3.03;;;30.40;99.80;;;;;;5049828;28;20053;-76
2023/07/08 11:52:22;;;;;;;4.78;3.08;;;30.50;99.90;;;;;;5041035;28;20063;-77
2023/07/08 11:54:55;;;;;;;6.55;3.13;;;30.60;99.70;;;;;;5040045;28;20048;-77
2023/07/08 11:57:29;;;;;;;6.68;3.33;;;30.60;99.90;;;;;;5043430;28;20048;-77
2023/07/08 12:00:18;;;;;;;7.13;3.10;;;30.70;98.90;;;;;;5043846;28;20049;-78
2023/07/08 12:02:54;;;;;;;7.28;3.65;;;30.60;98.60;;;;;;5048319;28;20056;-78
2023/07/08 12:05:38;;;;;;;9.32;3.88;;;30.70;99.20;;;;;;5001308;28;20043;-78
2023/07/08 12:08:15;;;;;;;5.85;3.38;;;30.80;98.80;;;;;;5027235;28;20045;-77
2023/07/08 12:10:46;;;;;;;5.47;3.53;;;30.90;99.00;;;;;;5028258;28;20037;-77
2023/07/08 12:13:15;;;;;;;6.53;3.70;;;30.90;98.70;;;;;;5005711;28;20143;-78
2023/07/08 12:15:41;;;;;;;5.15;3.20;;;30.80;97.80;;;;;;5011886;28;20145;-77
2023/07/08 12:18:16;;;;;;;6.13;3.38;;;30.90;97.60;;;;;;5046717;28;20061;-77
2023/07/08 12:20:45;;;;;;;4.05;2.75;;;31.00;97.60;;;;;;5025550;28;20045;-77
2023/07/08 12:23:24;;;;;;;6.20;3.35;;;31.00;97.40;;;;;;5046009;28;20040;-77
2023/07/08 12:25:50;;;;;;;4.95;3.40;;;31.10;97.20;;;;;;5041033;28;20041;-77
2023/07/08 12:28:17;;;;;;;8.32;3.35;;;31.10;97.00;;;;;;5004036;28;20304;-76
2023/07/08 12:30:45;;;;;;;7.28;3.45;;;31.10;97.50;;;;;;5017770;28;20123;-77
2023/07/08 12:33:25;;;;;;;9.68;4.00;;;31.10;97.10;;;;;;5025329;28;20053;-78
2023/07/08 12:35:51;;;;;;;5.68;3.28;;;31.20;97.30;;;;;;5022536;28;20470;-77
2023/07/08 12:38:28;;;;;;;5.82;3.75;;;31.30;97.10;;;;;;5027495;28;20120;-76
2023/07/08 12:40:54;;;;;;;6.03;3.28;;;31.30;97.00;;;;;;5043081;28;20052;-77
2023/07/08 12:43:20;;;;;;;9.02;3.63;;;31.30;97.60;;;;;;5012678;28;20548;-77
2023/07/08 12:45:46;;;;;;;5.05;3.55;;;31.40;97.80;;;;;;5045312;28;20050;-77
2023/07/08 12:48:12;;;;;;;8.13;3.50;;;31.20;97.50;;;;;;5029476;28;20041;-77
2023/07/08 12:50:37;;;;;;;4.38;3.28;;;31.30;97.50;;;;;;5034244;28;20056;-77
2023/07/08 12:53:09;;;;;;;5.30;3.47;;;31.20;97.10;;;;;;5041413;28;20315;-75
2023/07/08 12:55:38;;;;;;;5.05;3.55;;;31.30;97.20;;;;;;5023058;28;20179;-76
2023/07/08 12:58:04;;;;;;;5.93;3.65;;;31.20;97.20;;;;;;5025931;28;20037;-74
2023/07/08 13:00:35;;;;;;;7.35;3.78;;;31.20;97.10;;;;;;5044202;28;20036;-76